Time;durP1;ratioP1;P1;durP2;ratioP2;P2;SDS_P1;SDS_P2;PMS_P1;PMS_P2;Temp;Humidity;BMP_temperature;BMP_pressure;BME280_temperature;BME280_humidity;BME280_pressure;Samples;Min_cycle;Max_cycle;Signal;HPM_P1;HPM_P2
2021/12/23 00:02:11;;;;;;;37.05;25.88;;;;;;;;;;6118408;23;20359;-83
2021/12/23 00:04:38;;;;;;;35.97;25.40;;;;;;;;;;6117700;23;20367;-83
2021/12/23 00:07:05;;;;;;;34.20;24.92;;;;;;;;;;6117659;23;20367;-83
2021/12/23 00:09:56;;;;;;;37.53;25.02;;;;;;;;;;6117260;23;20406;-83
2021/12/23 00:12:21;;;;;;;34.83;23.73;;;;;;;;;;6117001;23;20391;-83
2021/12/23 00:14:50;;;;;;;35.33;24.55;;;;;;;;;;6117334;23;20370;-83
2021/12/23 00:17:25;;;;;;;33.13;23.52;;;;;;;;;;6117166;23;20863;-83
2021/12/23 00:23:21;;;;;;;34.87;25.73;;;;;;;;;;6117482;23;20423;-83
2021/12/23 00:25:30;;;;;;;37.63;26.90;;;;;;;;;;6117878;23;20693;-83
2021/12/23 00:27:57;;;;;;;40.67;27.25;;;;;;;;;;6117168;23;20382;-83
2021/12/23 00:30:24;;;;;;;39.03;26.73;;;;;;;;;;6117233;23;20371;-83
2021/12/23 00:32:54;;;;;;;38.20;26.20;;;;;;;;;;6118031;23;20363;-83
2021/12/23 00:35:22;;;;;;;38.63;26.20;;;;;;;;;;6117180;23;20379;-83
2021/12/23 00:37:55;;;;;;;38.05;28.45;;;;;;;;;;6117574;23;20430;-83
2021/12/23 00:40:21;;;;;;;41.03;28.15;;;;;;;;;;6117328;23;20466;-82
2021/12/23 00:42:48;;;;;;;40.50;27.27;;;;;;;;;;6117535;23;20371;-84
2021/12/23 00:45:15;;;;;;;40.00;27.30;;;;;;;;;;6116999;23;20363;-84
2021/12/23 00:47:42;;;;;;;36.80;26.52;;;;;;;;;;6117108;23;20376;-84
2021/12/23 00:50:11;;;;;;;37.20;26.17;;;;;;;;;;6117368;23;20375;-83
2021/12/23 00:52:40;;;;;;;36.20;25.30;;;;;;;;;;6117353;23;20363;-83
2021/12/23 00:55:09;;;;;;;37.33;24.83;;;;;;;;;;6117065;23;20379;-84
2021/12/23 00:57:39;;;;;;;36.88;25.15;;;;;;;;;;6117590;23;20677;-83
2021/12/23 01:00:08;;;;;;;35.53;24.58;;;;;;;;;;6116939;23;20399;-83
2021/12/23 01:02:35;;;;;;;33.83;24.20;;;;;;;;;;6117957;23;20367;-83
2021/12/23 01:05:02;;;;;;;36.80;25.90;;;;;;;;;;6116877;23;20878;-83
2021/12/23 01:07:31;;;;;;;39.72;26.92;;;;;;;;;;6117009;23;20517;-83
2021/12/23 01:09:58;;;;;;;37.70;26.67;;;;;;;;;;6117450;23;20394;-83
2021/12/23 01:12:30;;;;;;;37.55;27.13;;;;;;;;;;6117521;23;20371;-83
2021/12/23 01:15:09;;;;;;;38.35;27.02;;;;;;;;;;6117409;23;20382;-84
2021/12/23 01:17:53;;;;;;;39.10;26.55;;;;;;;;;;6117686;23;20910;-83
2021/12/23 01:20:25;;;;;;;39.25;26.83;;;;;;;;;;6117218;23;20371;-84
2021/12/23 01:22:54;;;;;;;35.58;25.85;;;;;;;;;;6118070;23;20638;-83
2021/12/23 01:25:22;;;;;;;38.97;26.58;;;;;;;;;;6117331;23;20442;-83
2021/12/23 01:27:49;;;;;;;38.85;26.17;;;;;;;;;;6117253;23;20414;-83
2021/12/23 01:30:17;;;;;;;37.20;26.35;;;;;;;;;;6117395;23;20732;-83
2021/12/23 01:32:44;;;;;;;38.72;26.25;;;;;;;;;;6118239;23;20395;-83
2021/12/23 01:35:11;;;;;;;37.13;26.77;;;;;;;;;;6117586;23;20375;-83
2021/12/23 01:37:39;;;;;;;37.75;26.67;;;;;;;;;;6117658;23;20728;-84
2021/12/23 01:40:10;;;;;;;39.50;26.63;;;;;;;;;;6117753;23;20371;-83
2021/12/23 01:42:37;;;;;;;38.22;26.20;;;;;;;;;;6118120;23;20366;-83
2021/12/23 01:45:08;;;;;;;39.05;25.55;;;;;;;;;;6117660;23;20363;-83
2021/12/23 01:47:35;;;;;;;38.00;26.20;;;;;;;;;;6117324;23;20375;-83
2021/12/23 01:50:03;;;;;;;38.20;25.92;;;;;;;;;;6117186;23;20395;-83
2021/12/23 01:52:30;;;;;;;36.42;25.95;;;;;;;;;;6117150;23;20450;-83
2021/12/23 01:54:57;;;;;;;39.25;26.17;;;;;;;;;;6117788;23;20391;-83
2021/12/23 01:57:30;;;;;;;38.50;26.65;;;;;;;;;;6118236;23;20363;-84
2021/12/23 01:59:58;;;;;;;39.95;27.48;;;;;;;;;;6119772;23;20367;-83
2021/12/23 02:02:26;;;;;;;39.90;26.20;;;;;;;;;;6119896;23;20363;-83
2021/12/23 02:04:53;;;;;;;35.53;26.52;;;;;;;;;;6120198;23;20836;-83
2021/12/23 02:07:19;;;;;;;37.80;26.40;;;;;;;;;;6119204;23;20379;-83
2021/12/23 02:09:47;;;;;;;38.05;25.90;;;;;;;;;;6119460;23;20391;-83
2021/12/23 02:12:15;;;;;;;34.00;24.45;;;;;;;;;;6119254;23;20363;-83
2021/12/23 02:14:44;;;;;;;34.47;23.85;;;;;;;;;;6119933;23;20375;-83
2021/12/23 02:17:11;;;;;;;33.72;23.55;;;;;;;;;;6119343;23;20369;-83
2021/12/23 02:19:37;;;;;;;33.60;24.15;;;;;;;;;;6119129;23;20371;-83
2021/12/23 02:22:06;;;;;;;33.15;24.50;;;;;;;;;;6118879;23;20371;-83
2021/12/23 02:24:33;;;;;;;35.78;24.75;;;;;;;;;;6118752;23;20852;-83
2021/12/23 02:27:00;;;;;;;36.55;24.23;;;;;;;;;;6119623;23;20371;-83
2021/12/23 02:29:27;;;;;;;33.25;24.13;;;;;;;;;;6118924;23;20446;-83
2021/12/23 02:31:54;;;;;;;31.83;23.30;;;;;;;;;;6118989;23;20716;-83
2021/12/23 02:34:22;;;;;;;33.60;23.75;;;;;;;;;;6118757;23;20371;-83
2021/12/23 02:36:50;;;;;;;34.72;23.25;;;;;;;;;;6118964;23;20370;-83
2021/12/23 02:39:19;;;;;;;34.40;24.35;;;;;;;;;;6118956;23;20684;-84
2021/12/23 02:41:46;;;;;;;31.85;23.13;;;;;;;;;;6119105;23;20367;-83
2021/12/23 02:44:13;;;;;;;32.17;23.98;;;;;;;;;;6118226;23;20371;-84
2021/12/23 02:46:40;;;;;;;33.20;23.50;;;;;;;;;;6119384;23;20378;-83
2021/12/23 02:49:07;;;;;;;31.33;22.60;;;;;;;;;;6118179;23;20390;-84
2021/12/23 02:51:34;;;;;;;31.65;22.48;;;;;;;;;;6117459;23;20714;-83
2021/12/23 02:54:01;;;;;;;30.37;21.83;;;;;;;;;;6118000;23;20359;-83
2021/12/23 02:56:29;;;;;;;30.88;21.63;;;;;;;;;;6118686;23;20370;-83
2021/12/23 02:58:56;;;;;;;33.78;22.05;;;;;;;;;;6119548;23;20454;-83
2021/12/23 03:01:24;;;;;;;31.40;21.65;;;;;;;;;;6117137;23;20654;-84
2021/12/23 03:03:51;;;;;;;30.57;22.13;;;;;;;;;;6119476;23;20665;-84
2021/12/23 03:06:19;;;;;;;32.63;22.50;;;;;;;;;;6119437;23;20363;-84
2021/12/23 03:08:48;;;;;;;30.70;21.38;;;;;;;;;;6119074;23;20390;-83
2021/12/23 03:11:18;;;;;;;32.00;22.02;;;;;;;;;;6119410;23;20370;-84
2021/12/23 03:13:47;;;;;;;32.40;22.17;;;;;;;;;;6119540;23;20374;-83
2021/12/23 03:16:18;;;;;;;28.73;21.70;;;;;;;;;;6118787;23;20371;-84
2021/12/23 03:18:45;;;;;;;31.88;22.00;;;;;;;;;;6119085;23;20669;-84
2021/12/23 03:21:12;;;;;;;31.88;22.08;;;;;;;;;;6119086;23;20383;-84
2021/12/23 03:23:39;;;;;;;30.83;22.13;;;;;;;;;;6118628;23;20383;-83
2021/12/23 03:26:06;;;;;;;30.65;22.00;;;;;;;;;;6119247;23;20391;-83
2021/12/23 03:28:34;;;;;;;29.45;21.50;;;;;;;;;;6119136;23;20378;-84
2021/12/23 03:31:04;;;;;;;32.38;22.05;;;;;;;;;;6119353;23;20363;-84
2021/12/23 03:33:32;;;;;;;30.38;21.92;;;;;;;;;;6118615;23;20843;-84
2021/12/23 03:35:59;;;;;;;28.65;21.45;;;;;;;;;;6119024;23;20362;-83
2021/12/23 03:38:27;;;;;;;30.23;22.20;;;;;;;;;;6118599;23;21368;-84
2021/12/23 03:40:54;;;;;;;31.85;22.00;;;;;;;;;;6119492;23;20410;-83
2021/12/23 03:43:22;;;;;;;31.17;21.85;;;;;;;;;;6119025;23;20740;-84
2021/12/23 03:45:50;;;;;;;29.85;21.48;;;;;;;;;;6119599;23;20363;-83
2021/12/23 03:48:19;;;;;;;32.65;21.92;;;;;;;;;;6118561;23;20367;-84
2021/12/23 03:50:47;;;;;;;30.42;21.55;;;;;;;;;;6118735;23;20390;-83
2021/12/23 03:53:14;;;;;;;30.17;21.35;;;;;;;;;;6118895;23;20378;-83
2021/12/23 03:55:41;;;;;;;30.27;21.20;;;;;;;;;;6118994;23;20623;-83
2021/12/23 03:58:08;;;;;;;31.42;21.48;;;;;;;;;;6119181;23;20398;-83
2021/12/23 04:00:35;;;;;;;28.77;21.10;;;;;;;;;;6119694;23;20371;-83
2021/12/23 04:03:02;;;;;;;29.20;21.08;;;;;;;;;;6120197;23;20371;-83
2021/12/23 04:05:31;;;;;;;31.77;22.02;;;;;;;;;;6119429;23;20368;-83
2021/12/23 04:07:57;;;;;;;32.40;21.95;;;;;;;;;;6119789;23;20375;-83
2021/12/23 04:10:24;;;;;;;33.60;22.20;;;;;;;;;;6119081;23;20398;-84
2021/12/23 04:12:52;;;;;;;34.72;22.38;;;;;;;;;;6119308;23;20382;-83
2021/12/23 04:15:22;;;;;;;32.55;22.25;;;;;;;;;;6118540;23;20374;-83
2021/12/23 04:17:50;;;;;;;31.88;22.13;;;;;;;;;;6118898;23;20370;-84
2021/12/23 04:20:20;;;;;;;31.10;21.63;;;;;;;;;;6117983;23;20386;-83
2021/12/23 04:22:51;;;;;;;34.05;21.95;;;;;;;;;;6119105;23;20692;-84
2021/12/23 04:25:20;;;;;;;31.15;22.05;;;;;;;;;;6118757;23;20386;-83
2021/12/23 04:27:48;;;;;;;31.85;21.13;;;;;;;;;;6119099;23;20449;-83
2021/12/23 04:30:16;;;;;;;28.83;20.35;;;;;;;;;;6118805;23;20391;-83
2021/12/23 04:32:43;;;;;;;29.05;20.33;;;;;;;;;;6119107;23;20402;-84
2021/12/23 04:35:12;;;;;;;33.10;20.60;;;;;;;;;;6118567;23;20680;-83
2021/12/23 04:37:39;;;;;;;29.63;20.63;;;;;;;;;;6119066;23;20371;-83
2021/12/23 04:40:11;;;;;;;32.50;20.75;;;;;;;;;;6118516;23;20732;-83
2021/12/23 04:42:38;;;;;;;26.45;20.20;;;;;;;;;;6118951;23;20839;-83
2021/12/23 04:45:06;;;;;;;30.92;20.90;;;;;;;;;;6118955;23;20371;-83
2021/12/23 04:47:33;;;;;;;31.17;20.95;;;;;;;;;;6118952;23;20367;-83
2021/12/23 04:50:00;;;;;;;29.70;20.58;;;;;;;;;;6118826;23;20393;-83
2021/12/23 04:52:27;;;;;;;33.97;20.17;;;;;;;;;;6118410;23;20625;-83
2021/12/23 04:54:54;;;;;;;30.95;20.15;;;;;;;;;;6119220;23;20408;-83
2021/12/23 04:57:23;;;;;;;30.23;20.05;;;;;;;;;;6118426;23;20374;-83
2021/12/23 04:59:50;;;;;;;28.17;19.83;;;;;;;;;;6118213;23;20441;-84
2021/12/23 05:02:16;;;;;;;29.92;19.23;;;;;;;;;;6117657;23;20371;-84
2021/12/23 05:04:43;;;;;;;32.15;20.00;;;;;;;;;;6117457;23;20367;-83
2021/12/23 05:07:10;;;;;;;29.88;19.50;;;;;;;;;;6112531;23;20363;-83
2021/12/23 05:09:37;;;;;;;27.65;19.13;;;;;;;;;;6114132;23;20470;-83
2021/12/23 05:12:05;;;;;;;28.92;20.15;;;;;;;;;;6116819;23;20430;-83
2021/12/23 05:14:33;;;;;;;27.98;19.35;;;;;;;;;;6116765;23;20688;-84
2021/12/23 05:17:00;;;;;;;26.25;19.00;;;;;;;;;;6117990;23;20371;-83
2021/12/23 05:19:27;;;;;;;28.13;20.13;;;;;;;;;;6117727;23;20363;-83
2021/12/23 05:21:54;;;;;;;27.67;19.40;;;;;;;;;;6117606;23;20737;-83
2021/12/23 05:24:21;;;;;;;29.15;20.05;;;;;;;;;;6117272;23;20657;-83
2021/12/23 05:26:48;;;;;;;30.08;19.98;;;;;;;;;;6117675;23;20359;-83
2021/12/23 05:29:15;;;;;;;27.17;19.03;;;;;;;;;;6117383;23;20613;-83
2021/12/23 05:31:43;;;;;;;27.45;19.88;;;;;;;;;;6118181;23;20405;-83
2021/12/23 05:34:10;;;;;;;30.25;20.20;;;;;;;;;;6118663;23;20363;-83
2021/12/23 05:36:37;;;;;;;29.25;19.55;;;;;;;;;;6119978;23;20362;-83
2021/12/23 05:39:04;;;;;;;29.05;20.42;;;;;;;;;;6119471;23;20916;-83
2021/12/23 05:41:31;;;;;;;30.05;19.55;;;;;;;;;;6119502;23;20872;-83
2021/12/23 05:43:58;;;;;;;28.60;19.35;;;;;;;;;;6120143;23;20867;-83
2021/12/23 05:46:27;;;;;;;28.85;19.92;;;;;;;;;;6119604;23;20363;-83
2021/12/23 05:48:56;;;;;;;26.77;19.48;;;;;;;;;;6119064;23;20414;-83
2021/12/23 05:51:23;;;;;;;27.38;19.35;;;;;;;;;;6119125;23;20391;-84
2021/12/23 05:53:50;;;;;;;28.03;19.17;;;;;;;;;;6119718;23;20505;-83
2021/12/23 05:56:16;;;;;;;29.85;19.50;;;;;;;;;;6118750;23;20673;-83
2021/12/23 05:58:43;;;;;;;30.27;19.90;;;;;;;;;;6119700;23;20450;-83
2021/12/23 06:01:10;;;;;;;28.58;19.42;;;;;;;;;;6120550;23;20363;-86
2021/12/23 06:03:39;;;;;;;29.15;19.77;;;;;;;;;;6121186;23;20430;-86
2021/12/23 06:06:10;;;;;;;30.38;20.58;;;;;;;;;;6121477;23;20653;-85
2021/12/23 06:08:36;;;;;;;30.20;21.35;;;;;;;;;;6129460;23;20395;-85
2021/12/23 06:11:03;;;;;;;29.45;21.30;;;;;;;;;;6141322;23;20454;-86
2021/12/23 06:13:30;;;;;;;33.83;20.98;;;;;;;;;;6141286;23;20359;-85
2021/12/23 06:15:57;;;;;;;32.17;21.30;;;;;;;;;;6142990;23;20354;-85
2021/12/23 06:18:24;;;;;;;31.48;22.38;;;;;;;;;;6133097;23;20386;-85
2021/12/23 06:20:51;;;;;;;30.97;22.03;;;;;;;;;;6137232;23;20363;-84
2021/12/23 06:23:19;;;;;;;34.03;22.80;;;;;;;;;;6136718;23;20428;-85
2021/12/23 06:25:46;;;;;;;33.17;23.42;;;;;;;;;;6137503;23;20699;-83
2021/12/23 06:28:13;;;;;;;35.33;25.87;;;;;;;;;;6127952;23;20742;-85
2021/12/23 06:30:40;;;;;;;37.22;26.02;;;;;;;;;;6118205;23;20947;-84
2021/12/23 06:33:07;;;;;;;36.28;25.42;;;;;;;;;;6118088;23;20363;-84
2021/12/23 06:35:34;;;;;;;38.05;25.60;;;;;;;;;;6119843;23;20363;-86
2021/12/23 06:38:07;;;;;;;35.90;25.63;;;;;;;;;;6120163;23;20377;-87
2021/12/23 06:40:36;;;;;;;36.83;25.83;;;;;;;;;;6118139;23;20709;-86
2021/12/23 06:43:03;;;;;;;35.60;25.27;;;;;;;;;;6119189;23;20375;-87
2021/12/23 06:45:30;;;;;;;40.53;27.88;;;;;;;;;;6118101;23;20366;-88
2021/12/23 06:47:58;;;;;;;38.10;26.90;;;;;;;;;;6117629;23;20856;-87
2021/12/23 06:50:25;;;;;;;39.63;24.63;;;;;;;;;;6117977;23;20391;-87
2021/12/23 06:52:52;;;;;;;37.50;24.85;;;;;;;;;;6118560;23;20700;-85
2021/12/23 06:55:20;;;;;;;40.22;23.63;;;;;;;;;;6117894;23;20724;-84
2021/12/23 06:57:54;;;;;;;36.63;24.00;;;;;;;;;;6117094;23;20372;-85
2021/12/23 07:00:22;;;;;;;34.25;23.17;;;;;;;;;;6117868;23;20401;-86
2021/12/23 07:02:48;;;;;;;35.88;23.48;;;;;;;;;;6116619;23;20367;-82
2021/12/23 07:05:16;;;;;;;37.50;24.70;;;;;;;;;;6114132;23;20562;-81
2021/12/23 07:07:53;;;;;;;37.50;25.40;;;;;;;;;;6118081;23;20453;-81
2021/12/23 07:10:21;;;;;;;37.15;24.73;;;;;;;;;;6116602;23;20700;-82
2021/12/23 07:12:49;;;;;;;35.13;24.60;;;;;;;;;;6114238;23;20394;-82
2021/12/23 07:15:16;;;;;;;37.25;24.25;;;;;;;;;;6117745;23;20470;-82
2021/12/23 07:17:43;;;;;;;35.45;23.77;;;;;;;;;;6118472;23;20435;-82
2021/12/23 07:20:11;;;;;;;32.15;22.63;;;;;;;;;;6117966;23;20362;-82
2021/12/23 07:22:38;;;;;;;35.35;23.35;;;;;;;;;;6091959;23;20878;-83
2021/12/23 07:25:06;;;;;;;33.53;22.95;;;;;;;;;;6118897;23;20370;-83
2021/12/23 07:27:33;;;;;;;33.08;22.45;;;;;;;;;;6118672;23;20374;-83
2021/12/23 07:30:02;;;;;;;34.03;22.17;;;;;;;;;;6119364;23;20649;-83
2021/12/23 07:32:29;;;;;;;36.53;23.77;;;;;;;;;;6118943;23;20371;-83
2021/12/23 07:34:55;;;;;;;35.25;23.42;;;;;;;;;;6118328;23;20370;-83
2021/12/23 07:37:22;;;;;;;36.05;23.48;;;;;;;;;;6118028;23;20363;-83
2021/12/23 07:39:49;;;;;;;38.85;25.33;;;;;;;;;;6118454;23;20371;-83
2021/12/23 07:42:18;;;;;;;39.40;25.33;;;;;;;;;;6118963;23;20359;-82
2021/12/23 07:44:45;;;;;;;37.42;26.23;;;;;;;;;;6119459;23;20797;-83
2021/12/23 07:47:15;;;;;;;37.42;24.73;;;;;;;;;;6119034;23;20371;-83
2021/12/23 07:49:42;;;;;;;36.10;24.70;;;;;;;;;;6119411;23;20452;-83
2021/12/23 07:52:09;;;;;;;36.60;24.55;;;;;;;;;;6118575;23;20425;-83
2021/12/23 07:54:37;;;;;;;36.63;24.23;;;;;;;;;;6119579;23;20367;-82
2021/12/23 07:57:04;;;;;;;33.25;23.38;;;;;;;;;;6118731;23;20452;-82
2021/12/23 07:59:31;;;;;;;35.28;23.63;;;;;;;;;;6118117;23;20378;-80
2021/12/23 08:01:58;;;;;;;31.23;23.73;;;;;;;;;;6118659;23;20371;-80
2021/12/23 08:04:26;;;;;;;33.47;23.67;;;;;;;;;;6117543;23;20367;-80
2021/12/23 08:06:55;;;;;;;34.35;23.45;;;;;;;;;;6118141;23;20876;-80
2021/12/23 08:09:23;;;;;;;33.70;23.17;;;;;;;;;;6117847;23;20371;-80
2021/12/23 08:11:49;;;;;;;35.00;23.50;;;;;;;;;;6118314;23;20466;-80
2021/12/23 08:14:17;;;;;;;37.38;24.58;;;;;;;;;;6117807;23;20379;-80
2021/12/23 08:16:44;;;;;;;39.25;25.23;;;;;;;;;;6117771;23;20358;-80
2021/12/23 08:19:11;;;;;;;35.22;24.63;;;;;;;;;;6117252;23;20700;-80
2021/12/23 08:21:39;;;;;;;37.75;25.02;;;;;;;;;;6118316;23;20367;-80
2021/12/23 08:24:06;;;;;;;35.92;25.23;;;;;;;;;;6118219;23;20429;-80
2021/12/23 08:26:40;;;;;;;37.10;24.42;;;;;;;;;;6118228;23;20394;-80
2021/12/23 08:29:08;;;;;;;34.65;23.83;;;;;;;;;;6117986;23;20378;-83
2021/12/23 08:31:35;;;;;;;36.63;24.15;;;;;;;;;;6118344;23;20498;-81
2021/12/23 08:34:02;;;;;;;36.65;25.83;;;;;;;;;;6118157;23;20725;-80
2021/12/23 08:36:29;;;;;;;36.33;25.50;;;;;;;;;;6118448;23;20367;-81
2021/12/23 08:38:58;;;;;;;35.78;25.27;;;;;;;;;;6118036;23;20433;-81
2021/12/23 08:41:25;;;;;;;38.22;27.60;;;;;;;;;;6118382;23;20756;-80
2021/12/23 08:43:52;;;;;;;42.42;28.83;;;;;;;;;;6116763;23;20390;-81
2021/12/23 08:46:19;;;;;;;39.90;27.27;;;;;;;;;;6117006;23;20399;-82
2021/12/23 08:48:46;;;;;;;39.03;26.67;;;;;;;;;;6117578;23;20790;-82
2021/12/23 08:51:13;;;;;;;39.17;27.52;;;;;;;;;;6117104;23;20867;-80
2021/12/23 08:53:40;;;;;;;38.78;27.42;;;;;;;;;;6117614;23;20371;-80
2021/12/23 08:56:08;;;;;;;42.33;28.58;;;;;;;;;;6118172;23;20737;-81
2021/12/23 08:58:36;;;;;;;42.90;28.50;;;;;;;;;;6117858;23;20399;-81
2021/12/23 09:01:04;;;;;;;42.88;29.33;;;;;;;;;;6117679;23;20401;-81
2021/12/23 09:03:33;;;;;;;41.83;27.75;;;;;;;;;;6116865;23;20684;-81
2021/12/23 09:06:00;;;;;;;41.22;28.80;;;;;;;;;;6117391;23;20398;-80
2021/12/23 09:08:27;;;;;;;40.67;28.67;;;;;;;;;;6116838;23;20433;-80
2021/12/23 09:10:55;;;;;;;42.33;28.67;;;;;;;;;;6117313;23;20379;-81
2021/12/23 09:13:23;;;;;;;45.90;30.23;;;;;;;;;;6117198;23;21181;-81
2021/12/23 09:15:51;;;;;;;37.55;26.73;;;;;;;;;;6118666;23;20651;-84
2021/12/23 09:18:18;;;;;;;38.17;25.55;;;;;;;;;;6115425;23;20465;-84
2021/12/23 09:20:45;;;;;;;37.63;26.67;;;;;;;;;;6116774;23;20366;-82
2021/12/23 09:23:12;;;;;;;44.97;30.88;;;;;;;;;;6117001;23;20378;-82
2021/12/23 09:25:40;;;;;;;43.50;29.37;;;;;;;;;;6117279;23;20367;-83
2021/12/23 09:28:22;;;;;;;48.05;32.60;;;;;;;;;;6117540;23;20370;-82
2021/12/23 09:33:36;;;;;;;42.58;29.48;;;;;;;;;;6118161;23;20366;-80
2021/12/23 09:36:04;;;;;;;42.80;29.17;;;;;;;;;;6118279;23;20367;-81
2021/12/23 09:38:31;;;;;;;36.85;25.63;;;;;;;;;;6116997;23;21178;-83
2021/12/23 09:41:01;;;;;;;37.08;25.65;;;;;;;;;;6117634;23;20382;-85
2021/12/23 09:43:30;;;;;;;33.67;23.77;;;;;;;;;;6117133;23;20362;-84
2021/12/23 09:45:58;;;;;;;35.13;23.00;;;;;;;;;;6116924;23;20910;-84
2021/12/23 09:48:28;;;;;;;42.58;26.83;;;;;;;;;;6116893;23;20371;-83
2021/12/23 09:50:58;;;;;;;39.22;26.60;;;;;;;;;;6116599;23;20442;-85
2021/12/23 09:53:27;;;;;;;38.33;25.90;;;;;;;;;;6116616;23;20362;-84
2021/12/23 09:55:54;;;;;;;35.60;25.83;;;;;;;;;;6116785;23;20371;-85
2021/12/23 09:58:21;;;;;;;36.75;25.67;;;;;;;;;;6117086;23;20406;-85
2021/12/23 10:00:48;;;;;;;36.10;25.42;;;;;;;;;;6115842;23;20363;-85
2021/12/23 10:03:19;;;;;;;33.97;24.50;;;;;;;;;;6116141;23;20476;-84
2021/12/23 10:05:46;;;;;;;35.40;23.63;;;;;;;;;;6116778;23;20360;-83
2021/12/23 10:08:14;;;;;;;36.33;23.80;;;;;;;;;;6115958;23;20433;-84
2021/12/23 10:10:47;;;;;;;36.35;24.10;;;;;;;;;;6116175;23;20866;-84
2021/12/23 10:30:22;;;;;;;39.00;24.40;;;;;;;;;;6118321;23;20367;-84
2021/12/23 10:33:13;;;;;;;36.00;23.37;;;;;;;;;;6117782;23;20423;-84
2021/12/23 10:38:31;;;;;;;35.83;22.75;;;;;;;;;;6117820;23;20675;-85
2021/12/23 10:41:03;;;;;;;31.13;21.58;;;;;;;;;;6117561;23;20474;-85
2021/12/23 10:43:34;;;;;;;30.85;19.58;;;;;;;;;;6117665;23;20836;-84
2021/12/23 10:46:05;;;;;;;28.60;19.20;;;;;;;;;;6117878;23;20878;-85
2021/12/23 10:48:34;;;;;;;66.57;41.57;;;;;;;;;;6118767;23;20427;-84
2021/12/23 10:51:06;;;;;;;29.63;21.58;;;;;;;;;;6116752;23;20435;-84
2021/12/23 10:53:53;;;;;;;29.87;19.67;;;;;;;;;;6116782;23;20363;-84
2021/12/23 10:59:12;;;;;;;30.02;20.77;;;;;;;;;;6118856;23;20386;-83
2021/12/23 11:02:10;;;;;;;32.90;21.08;;;;;;;;;;6118570;23;20394;-83
2021/12/23 11:04:53;;;;;;;32.33;22.35;;;;;;;;;;6118073;23;20430;-82
2021/12/23 11:07:26;;;;;;;32.85;22.83;;;;;;;;;;6117874;23;20367;-82
2021/12/23 11:10:01;;;;;;;32.03;22.30;;;;;;;;;;6118717;23;20839;-80
2021/12/23 11:30:16;;;;;;;33.77;24.33;;;;;;;;;;6116336;23;20480;-82
2021/12/23 11:38:33;;;;;;;35.00;25.33;;;;;;;;;;6117144;23;20874;-82
2021/12/23 11:41:13;;;;;;;36.33;26.38;;;;;;;;;;6117453;23;20858;-83
2021/12/23 11:43:49;;;;;;;38.20;28.15;;;;;;;;;;6118056;23;20371;-83
2021/12/23 11:46:23;;;;;;;39.53;27.98;;;;;;;;;;6117879;23;20844;-81
2021/12/23 11:48:53;;;;;;;39.15;29.33;;;;;;;;;;6117554;23;20371;-82
2021/12/23 11:51:29;;;;;;;71.50;43.30;;;;;;;;;;6116847;23;20378;-82
2021/12/23 11:53:56;;;;;;;44.10;30.90;;;;;;;;;;6118291;23;20375;-82
2021/12/23 11:56:25;;;;;;;42.00;30.20;;;;;;;;;;6118089;23;20744;-83
2021/12/23 11:58:57;;;;;;;41.63;29.83;;;;;;;;;;6117883;23;20442;-82
2021/12/23 12:01:28;;;;;;;43.57;30.60;;;;;;;;;;6117500;23;20848;-83
2021/12/23 12:04:00;;;;;;;40.00;29.58;;;;;;;;;;6117932;23;20385;-83
2021/12/23 12:06:31;;;;;;;40.38;28.70;;;;;;;;;;6117735;23;20363;-83
2021/12/23 12:09:12;;;;;;;40.58;30.35;;;;;;;;;;6117660;23;20374;-83
2021/12/23 12:11:41;;;;;;;46.75;32.95;;;;;;;;;;6113104;23;20371;-85
2021/12/23 12:14:40;;;;;;;44.55;32.78;;;;;;;;;;6114195;23;20375;-82
2021/12/23 12:17:49;;;;;;;43.70;32.55;;;;;;;;;;6113385;23;20382;-83
2021/12/23 12:20:35;;;;;;;42.55;31.60;;;;;;;;;;6108079;23;20735;-84
2021/12/23 12:23:05;;;;;;;42.13;31.45;;;;;;;;;;6115108;23;20883;-83
2021/12/23 12:25:58;;;;;;;47.55;32.70;;;;;;;;;;6115091;23;20778;-83
2021/12/23 12:28:41;;;;;;;43.45;31.67;;;;;;;;;;6113907;23;21140;-81
2021/12/23 12:31:12;;;;;;;44.97;32.33;;;;;;;;;;6115624;23;20364;-81
2021/12/23 12:34:00;;;;;;;47.42;32.85;;;;;;;;;;6115411;23;20430;-82
2021/12/23 12:36:28;;;;;;;44.15;32.42;;;;;;;;;;6115072;23;20740;-82
2021/12/23 12:38:57;;;;;;;44.88;32.90;;;;;;;;;;6114897;23;20418;-82
2021/12/23 12:41:30;;;;;;;48.15;34.15;;;;;;;;;;6115940;23;20394;-81
2021/12/23 12:44:10;;;;;;;44.38;33.25;;;;;;;;;;6114173;23;20383;-82
2021/12/23 12:47:00;;;;;;;46.58;33.88;;;;;;;;;;6115853;23;20775;-83
2021/12/23 12:49:29;;;;;;;47.67;34.42;;;;;;;;;;6115828;23;20379;-82
2021/12/23 12:52:08;;;;;;;48.28;33.92;;;;;;;;;;6115538;23;20465;-83
2021/12/23 12:54:41;;;;;;;43.22;33.35;;;;;;;;;;6115375;23;20386;-83
2021/12/23 12:57:09;;;;;;;46.80;34.00;;;;;;;;;;6115949;23;21058;-82
2021/12/23 12:59:41;;;;;;;47.42;33.65;;;;;;;;;;6116445;23;21398;-82
2021/12/23 13:02:27;;;;;;;47.35;33.13;;;;;;;;;;6118021;23;20386;-81
2021/12/23 13:04:59;;;;;;;45.13;32.72;;;;;;;;;;6117603;23;20371;-82
2021/12/23 13:07:29;;;;;;;45.65;33.03;;;;;;;;;;6117073;23;20863;-82
2021/12/23 13:10:01;;;;;;;46.65;34.03;;;;;;;;;;6116033;23;20367;-83
2021/12/23 13:12:44;;;;;;;44.83;32.70;;;;;;;;;;6116394;23;20461;-83
2021/12/23 13:15:19;;;;;;;47.95;34.95;;;;;;;;;;6117644;23;20363;-81
2021/12/23 13:17:49;;;;;;;51.80;35.80;;;;;;;;;;6116466;23;20367;-81
2021/12/23 13:20:17;;;;;;;49.67;35.25;;;;;;;;;;6116646;23;20385;-81
2021/12/23 13:22:45;;;;;;;46.90;34.80;;;;;;;;;;6116726;23;20441;-81
2021/12/23 13:25:13;;;;;;;44.60;32.67;;;;;;;;;;6117228;23;20405;-82
2021/12/23 13:27:41;;;;;;;48.33;34.38;;;;;;;;;;6117702;23;20367;-81
2021/12/23 13:30:11;;;;;;;46.05;33.65;;;;;;;;;;6117315;23;20372;-81
2021/12/23 13:32:39;;;;;;;44.95;34.45;;;;;;;;;;6111229;23;20363;-82
2021/12/23 13:35:15;;;;;;;45.90;33.83;;;;;;;;;;6113500;23;20378;-82
2021/12/23 13:37:44;;;;;;;45.05;34.35;;;;;;;;;;6114898;23;20370;-81
2021/12/23 13:40:12;;;;;;;44.45;34.65;;;;;;;;;;6113928;23;20371;-84
2021/12/23 13:42:40;;;;;;;47.97;37.00;;;;;;;;;;6115351;23;20421;-82
2021/12/23 13:45:08;;;;;;;51.55;36.95;;;;;;;;;;6115116;23;20828;-81
2021/12/23 13:47:36;;;;;;;51.15;36.95;;;;;;;;;;6116221;23;20363;-81
2021/12/23 13:50:05;;;;;;;46.63;35.65;;;;;;;;;;6114711;23;20430;-84
2021/12/23 13:52:34;;;;;;;49.17;36.85;;;;;;;;;;6116068;23;20461;-81
2021/12/23 13:55:05;;;;;;;47.75;35.60;;;;;;;;;;6116251;23;20363;-83
2021/12/23 13:57:34;;;;;;;47.40;35.88;;;;;;;;;;6117566;23;20367;-82
2021/12/23 14:00:01;;;;;;;104.88;67.82;;;;;;;;;;6117355;23;20371;-82
2021/12/23 14:02:30;;;;;;;52.80;36.67;;;;;;;;;;6090218;23;21019;-81
2021/12/23 14:05:01;;;;;;;46.30;34.57;;;;;;;;;;6114915;23;20495;-82
2021/12/23 14:07:32;;;;;;;48.88;35.92;;;;;;;;;;6116196;23;20443;-82
2021/12/23 14:10:01;;;;;;;52.92;37.47;;;;;;;;;;6117168;23;20369;-82
2021/12/23 14:12:43;;;;;;;49.33;36.53;;;;;;;;;;6115336;23;20418;-84
2021/12/23 14:15:13;;;;;;;50.67;36.20;;;;;;;;;;6117176;23;20450;-82
2021/12/23 14:17:43;;;;;;;50.13;36.58;;;;;;;;;;6116728;23;20371;-82
2021/12/23 14:23:14;;;;;;;49.67;37.40;;;;;;;;;;6072189;23;20410;-84
2021/12/23 14:25:54;;;;;;;54.53;38.90;;;;;;;;;;6117586;23;20375;-82
2021/12/23 14:28:24;;;;;;;55.70;41.05;;;;;;;;;;6116785;23;20394;-81
2021/12/23 14:30:55;;;;;;;50.15;37.67;;;;;;;;;;6117487;23;20732;-82
2021/12/23 14:33:24;;;;;;;64.28;46.05;;;;;;;;;;6117813;23;20367;-80
2021/12/23 14:35:53;;;;;;;59.92;42.25;;;;;;;;;;6116845;23;20371;-81
2021/12/23 14:38:27;;;;;;;55.92;39.88;;;;;;;;;;6116983;23;20379;-82
2021/12/23 14:41:00;;;;;;;56.83;39.25;;;;;;;;;;6117143;23;20366;-81
2021/12/23 14:43:26;;;;;;;53.63;38.77;;;;;;;;;;6114292;23;20394;-83
2021/12/23 14:45:58;;;;;;;54.83;39.85;;;;;;;;;;6115160;23;20367;-81
2021/12/23 14:48:31;;;;;;;53.42;39.22;;;;;;;;;;6114717;23;20367;-81
2021/12/23 14:51:01;;;;;;;54.60;38.85;;;;;;;;;;6113536;23;20399;-82
2021/12/23 14:53:30;;;;;;;56.38;39.70;;;;;;;;;;6113469;23;20378;-83
2021/12/23 14:55:59;;;;;;;52.67;38.85;;;;;;;;;;6114381;23;20395;-82
2021/12/23 14:58:28;;;;;;;73.45;52.38;;;;;;;;;;6117067;23;20702;-82
2021/12/23 15:00:55;;;;;;;68.85;49.75;;;;;;;;;;6117611;23;20426;-82
2021/12/23 15:03:25;;;;;;;73.70;51.13;;;;;;;;;;6115579;23;20387;-84
2021/12/23 15:05:54;;;;;;;56.05;39.45;;;;;;;;;;6117048;23;20401;-82
2021/12/23 15:08:22;;;;;;;67.05;46.40;;;;;;;;;;6115096;23;20383;-82
2021/12/23 15:10:53;;;;;;;112.13;64.10;;;;;;;;;;6117015;23;20449;-82
2021/12/23 15:13:30;;;;;;;106.68;61.28;;;;;;;;;;6116786;23;20367;-82
2021/12/23 15:16:04;;;;;;;78.00;49.08;;;;;;;;;;6116385;23;20371;-81
2021/12/23 15:18:54;;;;;;;65.93;43.05;;;;;;;;;;6115837;23;20398;-81
2021/12/23 15:21:36;;;;;;;67.00;45.33;;;;;;;;;;6117378;23;20426;-82
2021/12/23 15:24:17;;;;;;;62.00;44.08;;;;;;;;;;6116765;23;20387;-80
2021/12/23 15:26:56;;;;;;;54.17;40.22;;;;;;;;;;6112410;23;20375;-82